Time;durP1;ratioP1;P1;durP2;ratioP2;P2;SDS_P1;SDS_P2;PMS_P1;PMS_P2;Temp;Humidity;BMP_temperature;BMP_pressure;BME280_temperature;BME280_humidity;BME280_pressure;Samples;Min_cycle;Max_cycle;Signal;HPM_P1;HPM_P2
2022/10/20 00:00:00;;;;;;;10.75;2.70;;;12.90;98.40;;;;;;10416626;28;20036;-64
2022/10/20 00:05:01;;;;;;;8.50;2.75;;;12.90;98.10;;;;;;10418268;28;20069;-65
2022/10/20 00:10:01;;;;;;;4.85;2.80;;;12.90;98.10;;;;;;10413962;28;20034;-64
2022/10/20 00:15:03;;;;;;;6.28;3.00;;;12.90;98.10;;;;;;10410508;28;20397;-64
2022/10/20 00:20:04;;;;;;;4.97;2.20;;;12.80;98.10;;;;;;10398594;28;20456;-64
2022/10/20 00:25:05;;;;;;;5.03;2.47;;;12.80;98.10;;;;;;10403545;28;20413;-65
2022/10/20 00:30:06;;;;;;;7.55;2.83;;;12.80;98.10;;;;;;10421074;28;20578;-64
2022/10/20 00:35:07;;;;;;;4.53;2.50;;;12.80;98.10;;;;;;10421750;28;20044;-64
2022/10/20 00:40:08;;;;;;;4.90;2.80;;;12.80;98.10;;;;;;10428792;28;20017;-64
2022/10/20 00:45:17;;;;;;;7.28;2.92;;;12.80;98.00;;;;;;10416313;28;20041;-64
2022/10/20 00:50:23;;;;;;;5.22;2.90;;;12.80;98.10;;;;;;10415720;28;20024;-64
2022/10/20 00:55:31;;;;;;;5.90;2.95;;;12.80;98.10;;;;;;10408873;28;20037;-65
2022/10/20 01:00:32;;;;;;;4.80;2.75;;;12.70;98.10;;;;;;10408923;28;20112;-65
2022/10/20 01:05:33;;;;;;;7.45;3.30;;;12.70;98.10;;;;;;10405838;28;20387;-65
2022/10/20 01:10:59;;;;;;;5.28;2.25;;;12.70;98.10;;;;;;10404361;28;20021;-65
2022/10/20 01:16:29;;;;;;;5.03;2.60;;;12.70;98.10;;;;;;10415250;28;20512;-64
2022/10/20 01:21:54;;;;;;;6.63;2.60;;;12.70;98.10;;;;;;10418508;28;20025;-65
2022/10/20 01:27:18;;;;;;;6.68;2.55;;;12.70;98.10;;;;;;10433384;28;20071;-64
2022/10/20 01:32:43;;;;;;;5.25;2.30;;;12.60;98.10;;;;;;10437069;28;20025;-64
2022/10/20 01:37:53;;;;;;;6.57;2.30;;;12.60;98.10;;;;;;10435538;28;20025;-64
2022/10/20 01:42:58;;;;;;;5.50;2.78;;;12.60;98.20;;;;;;10435866;28;20025;-65
2022/10/20 01:48:03;;;;;;;5.93;2.53;;;12.60;98.20;;;;;;10433804;28;20067;-64
2022/10/20 01:53:04;;;;;;;4.13;2.67;;;12.60;98.20;;;;;;10436919;28;20035;-65
2022/10/20 01:58:17;;;;;;;3.65;1.98;;;12.60;98.20;;;;;;10437329;28;20091;-64
2022/10/20 02:03:49;;;;;;;5.30;2.58;;;12.60;98.30;;;;;;10434984;28;20079;-64
2022/10/20 02:08:54;;;;;;;6.45;2.33;;;12.60;98.30;;;;;;10439394;28;20225;-65
2022/10/20 02:13:56;;;;;;;4.45;2.35;;;12.50;98.30;;;;;;10444429;28;20029;-64
2022/10/20 02:18:58;;;;;;;5.75;2.72;;;12.50;98.30;;;;;;10441825;28;20123;-64
2022/10/20 02:24:03;;;;;;;3.70;2.03;;;12.50;98.30;;;;;;10443558;28;20131;-65
2022/10/20 02:29:31;;;;;;;6.03;2.10;;;12.50;98.30;;;;;;10442101;28;20134;-65
2022/10/20 02:34:32;;;;;;;5.22;2.33;;;12.50;98.30;;;;;;10441147;28;20420;-64
2022/10/20 02:39:32;;;;;;;5.22;2.40;;;12.50;98.30;;;;;;10443584;28;20025;-65
2022/10/20 02:44:33;;;;;;;4.35;2.15;;;12.40;98.30;;;;;;10433224;28;20397;-64
2022/10/20 02:49:34;;;;;;;4.22;2.22;;;12.40;98.40;;;;;;10441649;28;20151;-64
2022/10/20 02:54:35;;;;;;;4.95;2.22;;;12.50;98.40;;;;;;10442720;28;20037;-65
2022/10/20 02:59:36;;;;;;;2.83;2.08;;;12.40;98.30;;;;;;10441609;28;20496;-64
2022/10/20 03:04:36;;;;;;;3.80;2.17;;;12.40;98.30;;;;;;10442554;28;20033;-64
2022/10/20 03:09:37;;;;;;;4.07;2.10;;;12.40;98.30;;;;;;10442635;28;20604;-64
2022/10/20 03:14:38;;;;;;;3.42;1.63;;;12.40;98.30;;;;;;10442194;28;20036;-64
2022/10/20 03:19:40;;;;;;;3.90;2.38;;;12.40;98.30;;;;;;10440440;28;20516;-65
2022/10/20 03:24:41;;;;;;;3.83;2.80;;;12.30;98.30;;;;;;10441291;28;20045;-64
2022/10/20 03:29:41;;;;;;;3.90;2.15;;;12.30;98.30;;;;;;10437204;28;20496;-65
2022/10/20 03:34:42;;;;;;;2.67;2.10;;;12.30;98.30;;;;;;10441327;28;20048;-64
2022/10/20 03:39:43;;;;;;;2.85;2.13;;;12.30;98.30;;;;;;10435998;28;20013;-64
2022/10/20 03:44:44;;;;;;;2.85;1.80;;;12.30;98.30;;;;;;10437216;28;20025;-65
2022/10/20 03:49:44;;;;;;;3.47;1.98;;;12.30;98.30;;;;;;10439408;28;20021;-65
2022/10/20 03:54:45;;;;;;;4.68;2.20;;;12.30;98.30;;;;;;10439925;28;20087;-64
2022/10/20 03:59:46;;;;;;;2.58;1.80;;;12.30;98.30;;;;;;10439897;28;20037;-64
2022/10/20 04:04:47;;;;;;;5.13;2.00;;;12.20;98.30;;;;;;10438940;28;20438;-64
2022/10/20 04:09:48;;;;;;;3.45;1.92;;;12.30;98.30;;;;;;10435639;28;20031;-64
2022/10/20 04:14:50;;;;;;;6.70;2.00;;;12.20;98.30;;;;;;10437003;28;20037;-64
2022/10/20 04:19:50;;;;;;;3.75;2.03;;;12.20;98.30;;;;;;10437682;28;20364;-64
2022/10/20 04:24:51;;;;;;;4.13;2.08;;;12.20;98.30;;;;;;10439147;28;20156;-64
2022/10/20 04:29:52;;;;;;;2.53;2.03;;;12.20;98.30;;;;;;10438650;28;20021;-64
2022/10/20 04:34:53;;;;;;;3.63;2.15;;;12.20;98.20;;;;;;10437466;28;20478;-64
2022/10/20 04:39:56;;;;;;;4.32;2.17;;;12.20;98.20;;;;;;10438268;28;20035;-65
2022/10/20 04:44:57;;;;;;;4.25;2.00;;;12.20;98.20;;;;;;10437026;28;20029;-65
2022/10/20 04:49:58;;;;;;;3.85;1.95;;;12.20;98.20;;;;;;10438543;28;20021;-64
2022/10/20 04:54:58;;;;;;;3.95;2.40;;;12.20;98.20;;;;;;10438383;28;20377;-65
2022/10/20 04:59:59;;;;;;;3.78;2.20;;;12.20;98.20;;;;;;10438220;28;20017;-65
2022/10/20 05:05:00;;;;;;;3.17;2.20;;;11.70;98.10;;;;;;10437648;28;20029;-64
2022/10/20 05:10:01;;;;;;;2.95;2.05;;;12.20;98.30;;;;;;10437656;28;20079;-64
2022/10/20 05:15:02;;;;;;;3.47;2.15;;;12.10;98.50;;;;;;10437864;28;20036;-65
2022/10/20 05:20:04;;;;;;;4.38;2.95;;;12.10;98.30;;;;;;10437471;28;20112;-64
2022/10/20 05:25:05;;;;;;;4.30;2.40;;;12.10;98.30;;;;;;10437366;28;20288;-65
2022/10/20 05:30:06;;;;;;;4.07;2.53;;;12.10;98.30;;;;;;10437709;28;20029;-64
2022/10/20 05:35:07;;;;;;;3.28;2.45;;;12.10;98.30;;;;;;10437436;28;20079;-65
2022/10/20 05:40:08;;;;;;;2.78;2.33;;;12.10;98.30;;;;;;10437684;28;20052;-64
2022/10/20 05:45:09;;;;;;;5.07;2.47;;;12.10;98.30;;;;;;10434378;28;20029;-64
2022/10/20 05:50:10;;;;;;;4.38;2.65;;;12.10;98.30;;;;;;10443430;28;20033;-64
2022/10/20 05:55:10;;;;;;;3.55;2.75;;;12.10;98.30;;;;;;10434784;28;20460;-65
2022/10/20 06:00:11;;;;;;;3.22;2.72;;;12.00;98.30;;;;;;10442489;28;20033;-65
2022/10/20 06:05:12;;;;;;;4.07;2.55;;;12.10;98.50;;;;;;10435115;28;20033;-64
2022/10/20 06:10:13;;;;;;;4.65;2.90;;;12.10;98.30;;;;;;10443772;28;20020;-64
2022/10/20 06:15:14;;;;;;;3.35;2.58;;;12.10;98.30;;;;;;10443341;28;20079;-64
2022/10/20 06:20:14;;;;;;;4.60;2.97;;;12.00;98.30;;;;;;10442717;28;20033;-64
2022/10/20 06:25:15;;;;;;;4.30;2.80;;;12.00;98.30;;;;;;10438755;28;20064;-65
2022/10/20 06:30:16;;;;;;;3.88;2.72;;;12.00;98.30;;;;;;10443908;28;20029;-65
2022/10/20 06:35:16;;;;;;;5.05;2.67;;;12.00;98.30;;;;;;10442929;28;20061;-62
2022/10/20 06:40:17;;;;;;;4.13;3.17;;;12.00;98.50;;;;;;10433228;28;20033;-64
2022/10/20 06:45:18;;;;;;;3.92;2.85;;;12.00;98.30;;;;;;10387704;28;20029;-64
2022/10/20 06:50:19;;;;;;;5.07;3.30;;;12.00;98.20;;;;;;10359218;28;20028;-63
2022/10/20 06:55:20;;;;;;;4.22;3.00;;;12.00;98.20;;;;;;10355483;28;20043;-66
2022/10/20 07:00:20;;;;;;;5.63;3.35;;;12.00;98.20;;;;;;10353100;28;20091;-66
2022/10/20 07:05:21;;;;;;;6.30;3.60;;;12.00;98.20;;;;;;10371832;28;20086;-68
2022/10/20 07:10:22;;;;;;;6.13;3.47;;;12.00;98.20;;;;;;10372076;28;20334;-66
2022/10/20 07:15:22;;;;;;;4.72;3.28;;;12.00;98.20;;;;;;10374391;28;20208;-66
2022/10/20 07:20:25;;;;;;;4.40;3.08;;;12.00;98.10;;;;;;10340904;28;20039;-65
2022/10/20 07:25:26;;;;;;;5.05;3.45;;;12.00;98.10;;;;;;10368980;28;20425;-65
2022/10/20 07:30:27;;;;;;;4.90;3.20;;;12.00;98.10;;;;;;10366896;28;20903;-65
2022/10/20 07:35:29;;;;;;;6.68;3.83;;;12.00;98.10;;;;;;10361018;28;20045;-65
2022/10/20 07:40:30;;;;;;;6.63;4.25;;;12.00;98.00;;;;;;10355726;28;20540;-65
2022/10/20 07:45:31;;;;;;;5.22;3.55;;;12.00;98.00;;;;;;10368805;28;20029;-65
2022/10/20 07:50:32;;;;;;;6.68;3.95;;;12.00;98.00;;;;;;10364425;28;20462;-67
2022/10/20 07:55:33;;;;;;;8.65;4.38;;;12.10;98.00;;;;;;10355908;28;20064;-66
2022/10/20 08:00:34;;;;;;;6.90;3.85;;;12.00;97.90;;;;;;10365441;28;20564;-66
2022/10/20 08:05:34;;;;;;;5.38;4.18;;;12.00;97.90;;;;;;10351657;28;20071;-66
2022/10/20 08:10:35;;;;;;;7.85;4.15;;;11.80;97.80;;;;;;10366354;28;20041;-66
2022/10/20 08:15:36;;;;;;;6.00;3.63;;;12.10;97.80;;;;;;10367945;28;20501;-65
2022/10/20 08:20:37;;;;;;;6.78;3.83;;;12.10;97.80;;;;;;10365666;28;20139;-65
2022/10/20 08:25:38;;;;;;;5.85;3.88;;;12.20;97.80;;;;;;10369122;28;20049;-65
2022/10/20 08:30:38;;;;;;;7.32;3.80;;;12.20;97.80;;;;;;10365069;28;20036;-65
2022/10/20 08:35:39;;;;;;;5.82;4.03;;;12.20;97.70;;;;;;10362724;28;20045;-66
2022/10/20 08:40:42;;;;;;;5.05;3.85;;;12.20;97.70;;;;;;10366277;28;20805;-65
2022/10/20 08:45:43;;;;;;;6.40;4.05;;;12.30;97.60;;;;;;10364857;28;20711;-66
2022/10/20 08:50:46;;;;;;;5.90;3.92;;;12.30;97.60;;;;;;10372846;28;20025;-65
2022/10/20 08:55:47;;;;;;;5.78;3.97;;;12.40;97.50;;;;;;10359939;28;20034;-65
2022/10/20 09:00:54;;;;;;;5.05;3.90;;;12.40;97.50;;;;;;10362060;28;20060;-65
2022/10/20 09:06:06;;;;;;;5.18;3.70;;;12.40;97.40;;;;;;10362577;28;20037;-65
2022/10/20 09:11:12;;;;;;;6.22;4.18;;;12.40;97.40;;;;;;10367110;28;20075;-65
2022/10/20 09:16:22;;;;;;;5.90;3.80;;;12.40;97.40;;;;;;10373509;28;20143;-66
2022/10/20 09:21:23;;;;;;;5.28;4.20;;;12.40;97.40;;;;;;10376275;28;20061;-66
2022/10/20 09:26:37;;;;;;;4.28;3.55;;;12.40;97.40;;;;;;10377082;28;20053;-65
2022/10/20 09:31:49;;;;;;;5.93;3.78;;;12.50;97.30;;;;;;10375923;28;20955;-66
2022/10/20 09:37:14;;;;;;;5.25;3.78;;;12.50;97.30;;;;;;10362745;28;20464;-66
2022/10/20 09:42:27;;;;;;;4.82;3.58;;;12.60;97.30;;;;;;10373262;28;20037;-66
2022/10/20 09:47:28;;;;;;;4.25;3.55;;;12.60;97.30;;;;;;10373653;28;20036;-67
2022/10/20 09:52:39;;;;;;;4.35;3.60;;;12.70;97.30;;;;;;10372036;28;20025;-66
2022/10/20 09:57:46;;;;;;;5.45;3.88;;;12.70;97.20;;;;;;10376753;28;20033;-69
2022/10/20 10:02:47;;;;;;;4.57;3.45;;;12.70;97.20;;;;;;10359509;28;20025;-66
2022/10/20 10:07:58;;;;;;;4.13;3.22;;;12.70;97.10;;;;;;10372363;28;20040;-66
2022/10/20 10:13:00;;;;;;;4.80;3.58;;;12.80;97.10;;;;;;10373239;28;20028;-66
2022/10/20 10:18:20;;;;;;;6.80;3.85;;;12.90;97.10;;;;;;10371894;28;20054;-66
2022/10/20 10:23:35;;;;;;;5.45;3.80;;;12.90;97.10;;;;;;10369355;28;20488;-66
2022/10/20 10:28:37;;;;;;;4.97;3.85;;;12.90;97.10;;;;;;10374949;28;20563;-66
2022/10/20 10:33:38;;;;;;;5.97;4.07;;;12.90;97.10;;;;;;10365906;28;20028;-67
2022/10/20 10:38:39;;;;;;;5.22;4.05;;;13.00;97.10;;;;;;10369917;28;20461;-66
2022/10/20 10:44:16;;;;;;;7.28;4.75;;;13.00;97.10;;;;;;10355903;28;20244;-66
2022/10/20 10:49:28;;;;;;;6.93;4.95;;;13.00;97.00;;;;;;10366660;28;20534;-65
2022/10/20 10:54:46;;;;;;;5.28;4.07;;;13.00;97.00;;;;;;10368187;28;20583;-65
2022/10/20 10:59:51;;;;;;;7.10;4.15;;;13.00;97.10;;;;;;10369152;28;20044;-67
2022/10/20 11:05:23;;;;;;;8.00;4.40;;;13.00;97.10;;;;;;10378685;28;20029;-65
2022/10/20 11:10:33;;;;;;;8.85;4.97;;;13.00;97.20;;;;;;10369331;28;20451;-65
2022/10/20 11:16:15;;;;;;;6.10;4.38;;;13.00;97.20;;;;;;10371586;28;20045;-66
2022/10/20 11:21:22;;;;;;;7.28;4.55;;;13.00;97.20;;;;;;10358786;28;20051;-67
2022/10/20 11:26:27;;;;;;;6.05;4.55;;;13.00;97.20;;;;;;10368479;28;20305;-66
2022/10/20 11:31:38;;;;;;;6.35;4.05;;;13.00;97.30;;;;;;10366350;28;20567;-65
2022/10/20 11:37:06;;;;;;;7.50;4.43;;;13.00;97.30;;;;;;10363212;28;20056;-66
2022/10/20 11:42:26;;;;;;;7.25;4.88;;;13.00;97.30;;;;;;10368626;28;20078;-66
2022/10/20 11:47:35;;;;;;;7.05;4.32;;;13.00;97.40;;;;;;10364185;28;20471;-65
2022/10/20 11:53:20;;;;;;;8.35;4.20;;;13.00;97.40;;;;;;10369849;28;20033;-65
2022/10/20 11:58:58;;;;;;;6.72;4.30;;;13.00;97.50;;;;;;10334780;28;20056;-65
2022/10/20 12:04:29;;;;;;;6.72;4.60;;;13.00;97.50;;;;;;10364602;28;20033;-66
2022/10/20 12:09:56;;;;;;;7.30;4.43;;;13.00;97.50;;;;;;10364331;28;20063;-66
2022/10/20 12:14:59;;;;;;;7.15;4.57;;;13.00;97.60;;;;;;10374161;28;20041;-66
2022/10/20 12:20:58;;;;;;;8.38;4.40;;;13.00;97.60;;;;;;10374184;28;20154;-66
2022/10/20 12:26:29;;;;;;;5.72;4.25;;;13.00;97.60;;;;;;10379818;28;20048;-65
2022/10/20 12:32:10;;;;;;;9.30;4.55;;;13.00;97.70;;;;;;10348019;28;20216;-65
2022/10/20 12:37:36;;;;;;;6.45;4.00;;;13.00;97.70;;;;;;10356356;28;20046;-65
2022/10/20 12:42:50;;;;;;;6.82;4.13;;;13.00;97.80;;;;;;10361965;28;20118;-65
2022/10/20 12:48:02;;;;;;;8.35;4.28;;;13.70;98.00;;;;;;10364614;28;20056;-65
2022/10/20 12:53:18;;;;;;;7.65;4.80;;;13.00;97.90;;;;;;10355519;28;20467;-64
2022/10/20 12:58:19;;;;;;;8.90;4.93;;;13.00;97.90;;;;;;10372730;28;20049;-65
2022/10/20 13:03:38;;;;;;;7.63;4.60;;;13.00;97.90;;;;;;10363162;28;20030;-66
2022/10/20 13:08:39;;;;;;;8.55;4.80;;;13.10;98.10;;;;;;10356414;28;20539;-65
2022/10/20 13:13:52;;;;;;;8.23;4.38;;;13.10;98.10;;;;;;10355116;28;20029;-66
2022/10/20 13:18:53;;;;;;;6.63;5.00;;;13.10;98.10;;;;;;10353136;28;20041;-66
2022/10/20 13:24:27;;;;;;;6.38;4.20;;;13.10;98.20;;;;;;10348066;28;20053;-65
2022/10/20 13:29:42;;;;;;;9.68;4.95;;;13.10;98.30;;;;;;10352627;28;20520;-65
2022/10/20 13:35:15;;;;;;;7.72;5.05;;;13.10;98.40;;;;;;10373074;28;20035;-65
2022/10/20 13:40:24;;;;;;;7.68;4.65;;;13.10;98.50;;;;;;10376761;28;20029;-65
2022/10/20 13:45:50;;;;;;;8.20;4.55;;;13.10;98.50;;;;;;10353014;28;20033;-65
2022/10/20 13:51:05;;;;;;;8.45;5.10;;;13.10;98.60;;;;;;10357351;28;20068;-66
2022/10/20 13:56:19;;;;;;;7.65;4.97;;;13.10;98.70;;;;;;10365586;28;20433;-64
2022/10/20 14:01:26;;;;;;;9.85;5.15;;;13.10;98.70;;;;;;10357410;28;20100;-64
2022/10/20 14:06:27;;;;;;;7.35;5.00;;;13.10;98.80;;;;;;10372036;28;20551;-65
2022/10/20 14:11:31;;;;;;;8.88;5.13;;;13.10;98.80;;;;;;10382873;28;20033;-66
2022/10/20 14:16:32;;;;;;;8.02;5.00;;;13.10;98.80;;;;;;10369455;28;20487;-64
2022/10/20 14:21:48;;;;;;;9.63;5.28;;;13.10;98.80;;;;;;10372887;28;20804;-65
2022/10/20 14:26:49;;;;;;;8.48;5.03;;;13.10;99.00;;;;;;10370241;28;20662;-67
2022/10/20 14:31:50;;;;;;;8.80;5.25;;;13.20;98.90;;;;;;10349964;28;20123;-65
2022/10/20 14:36:53;;;;;;;9.52;5.45;;;13.50;99.10;;;;;;10370022;28;20594;-65
2022/10/20 14:42:20;;;;;;;10.18;5.53;;;13.10;99.00;;;;;;10382782;28;20148;-65
2022/10/20 14:47:20;;;;;;;9.45;5.05;;;13.20;99.10;;;;;;10374368;28;20111;-66
2022/10/20 14:52:26;;;;;;;8.90;5.35;;;13.20;99.10;;;;;;10377782;28;20130;-66
2022/10/20 14:57:42;;;;;;;9.35;5.60;;;13.20;99.20;;;;;;10374530;28;20128;-66
2022/10/20 15:02:44;;;;;;;9.18;4.97;;;13.20;99.20;;;;;;10373334;28;20147;-68
2022/10/20 15:07:45;;;;;;;7.63;5.35;;;13.20;99.20;;;;;;10380066;28;20040;-66
2022/10/20 15:12:48;;;;;;;9.25;5.72;;;13.20;99.30;;;;;;10376496;28;20425;-66
2022/10/20 15:17:51;;;;;;;10.35;5.57;;;13.30;99.30;;;;;;10372726;28;20036;-66
2022/10/20 15:22:51;;;;;;;9.20;5.50;;;13.30;99.30;;;;;;10369894;28;20034;-65
2022/10/20 15:27:54;;;;;;;10.10;5.40;;;13.30;99.40;;;;;;10370562;28;20511;-65
2022/10/20 15:32:56;;;;;;;10.38;5.60;;;13.30;99.40;;;;;;10367020;28;20043;-68
2022/10/20 15:37:57;;;;;;;7.95;5.43;;;13.30;99.50;;;;;;10375508;28;20044;-65
2022/10/20 15:42:57;;;;;;;11.13;6.00;;;13.30;99.50;;;;;;10370327;28;20025;-70
2022/10/20 15:47:58;;;;;;;9.88;5.68;;;13.30;99.50;;;;;;10365189;28;20420;-66
2022/10/20 15:52:59;;;;;;;10.93;5.57;;;13.40;99.60;;;;;;10362488;28;20782;-70
2022/10/20 15:58:00;;;;;;;13.77;6.35;;;13.40;99.60;;;;;;10377775;28;20135;-65
2022/10/20 16:03:01;;;;;;;14.25;6.78;;;13.40;99.70;;;;;;10368980;28;20029;-66
2022/10/20 16:08:02;;;;;;;13.73;7.20;;;13.40;99.90;;;;;;10379071;28;20028;-65
2022/10/20 16:13:04;;;;;;;12.90;7.03;;;13.40;99.90;;;;;;10366486;28;20020;-65
2022/10/20 16:18:05;;;;;;;14.85;7.30;;;13.40;99.90;;;;;;10361393;28;20055;-67
2022/10/20 16:23:05;;;;;;;15.50;7.72;;;13.40;99.90;;;;;;10362440;28;20312;-66
2022/10/20 16:28:06;;;;;;;16.42;9.77;;;13.40;99.90;;;;;;10364519;28;20247;-65
2022/10/20 16:33:07;;;;;;;19.75;10.50;;;13.50;99.90;;;;;;10360681;28;20020;-66
2022/10/20 16:38:08;;;;;;;21.52;10.38;;;13.50;99.90;;;;;;10365241;28;20064;-66
2022/10/20 16:43:09;;;;;;;16.17;9.48;;;13.50;99.90;;;;;;10360842;28;20385;-65
2022/10/20 16:48:10;;;;;;;18.73;9.60;;;13.50;99.90;;;;;;10346949;28;20478;-65
2022/10/20 16:53:11;;;;;;;14.90;9.38;;;13.50;99.90;;;;;;10347702;28;20045;-65
2022/10/20 16:58:12;;;;;;;15.27;9.23;;;13.50;99.90;;;;;;10364240;28;20247;-66
2022/10/20 17:03:12;;;;;;;14.82;9.63;;;13.50;99.90;;;;;;10432242;28;20025;-64
2022/10/20 17:08:13;;;;;;;20.33;9.48;;;13.50;99.90;;;;;;10435949;28;20086;-66
2022/10/20 17:13:14;;;;;;;14.10;8.98;;;13.50;99.90;;;;;;10436764;28;20042;-64
2022/10/20 17:18:15;;;;;;;17.67;9.07;;;13.50;99.90;;;;;;10432346;28;20502;-69
2022/10/20 17:23:16;;;;;;;15.55;9.15;;;13.60;99.90;;;;;;10430723;28;20080;-65
2022/10/20 17:28:17;;;;;;;16.45;9.00;;;13.60;99.90;;;;;;10433344;28;20421;-65
2022/10/20 17:33:18;;;;;;;19.88;9.65;;;13.60;99.90;;;;;;10432330;28;20021;-65
2022/10/20 17:38:18;;;;;;;15.85;9.55;;;13.60;99.90;;;;;;10438065;28;20655;-64
2022/10/20 17:43:20;;;;;;;15.05;8.63;;;13.60;99.90;;;;;;10438986;28;20033;-67
2022/10/20 17:48:38;;;;;;;17.17;8.90;;;13.60;99.90;;;;;;10438720;28;20020;-66
2022/10/20 17:53:44;;;;;;;13.40;8.75;;;13.60;99.90;;;;;;10439265;28;20531;-67
2022/10/20 17:58:46;;;;;;;15.52;8.40;;;13.60;99.90;;;;;;10441249;28;20033;-68
2022/10/20 18:03:52;;;;;;;18.23;8.70;;;13.60;99.90;;;;;;10433105;28;20455;-67
2022/10/20 18:08:56;;;;;;;13.32;7.43;;;13.60;99.90;;;;;;10439413;28;20036;-64
2022/10/20 18:14:00;;;;;;;15.98;8.93;;;13.60;99.90;;;;;;10440903;28;20021;-65
2022/10/20 18:19:02;;;;;;;14.93;7.75;;;13.60;99.90;;;;;;10438595;28;20257;-65
2022/10/20 18:24:06;;;;;;;14.50;8.20;;;13.60;99.90;;;;;;10425043;28;20021;-65
2022/10/20 18:29:08;;;;;;;14.48;8.15;;;13.60;99.90;;;;;;10438223;28;20052;-65
2022/10/20 18:34:16;;;;;;;15.23;9.35;;;13.50;99.90;;;;;;10439951;28;20029;-65
2022/10/20 18:39:16;;;;;;;12.32;7.28;;;13.60;99.90;;;;;;10439342;28;20076;-65
2022/10/20 18:44:18;;;;;;;15.13;8.65;;;13.60;99.90;;;;;;10440514;28;20116;-66
2022/10/20 18:49:20;;;;;;;12.10;7.65;;;13.50;99.90;;;;;;10440107;28;20558;-65
2022/10/20 18:54:22;;;;;;;11.30;7.20;;;13.60;99.90;;;;;;10436701;28;21745;-65
2022/10/20 18:59:23;;;;;;;12.73;8.25;;;13.50;99.90;;;;;;10440089;28;20520;-65
2022/10/20 19:04:24;;;;;;;13.65;7.38;;;13.50;99.90;;;;;;10438959;28;20014;-65
2022/10/20 19:09:24;;;;;;;14.10;7.63;;;13.50;99.90;;;;;;10436878;28;20025;-65
2022/10/20 19:14:26;;;;;;;10.65;7.13;;;13.50;99.90;;;;;;10437796;28;20037;-65
2022/10/20 19:19:27;;;;;;;13.18;6.88;;;13.50;99.90;;;;;;10436551;28;20037;-65
2022/10/20 19:24:28;;;;;;;12.80;7.35;;;13.50;99.90;;;;;;10438369;28;20025;-64
2022/10/20 19:29:28;;;;;;;11.77;6.85;;;13.50;99.90;;;;;;10436994;28;20030;-65
2022/10/20 19:34:32;;;;;;;11.20;6.45;;;13.50;99.90;;;;;;10436208;28;20039;-65
2022/10/20 19:39:36;;;;;;;11.68;6.45;;;13.50;99.90;;;;;;10438548;28;20037;-65
2022/10/20 19:44:37;;;;;;;14.40;7.43;;;13.50;99.90;;;;;;10436405;28;20068;-65
2022/10/20 19:49:39;;;;;;;11.40;6.68;;;13.50;99.90;;;;;;10434665;28;20430;-65
2022/10/20 19:54:39;;;;;;;12.10;6.65;;;13.50;99.90;;;;;;10438508;28;20032;-66
2022/10/20 19:59:40;;;;;;;10.63;7.13;;;13.50;99.90;;;;;;10436857;28;20025;-65
2022/10/20 20:04:41;;;;;;;13.93;6.95;;;13.50;99.90;;;;;;10435898;28;20056;-66
2022/10/20 20:09:42;;;;;;;8.23;5.78;;;13.50;99.90;;;;;;10437808;28;20025;-66
2022/10/20 20:14:42;;;;;;;11.82;7.07;;;13.50;99.90;;;;;;10437493;28;20021;-66
2022/10/20 20:19:43;;;;;;;10.50;6.55;;;13.50;99.90;;;;;;10435407;28;20412;-66
2022/10/20 20:24:43;;;;;;;11.70;6.47;;;13.50;99.90;;;;;;10437275;28;20044;-65
2022/10/20 20:29:44;;;;;;;10.68;6.40;;;13.50;99.90;;;;;;10438901;28;20029;-65
2022/10/20 20:34:45;;;;;;;11.07;6.63;;;13.50;99.90;;;;;;10435940;28;20330;-65
2022/10/20 20:39:46;;;;;;;10.75;6.47;;;13.50;99.90;;;;;;10434654;28;20041;-65
2022/10/20 20:44:47;;;;;;;11.13;6.72;;;13.50;99.90;;;;;;10433925;28;20112;-66
2022/10/20 20:49:48;;;;;;;9.43;5.72;;;13.50;99.90;;;;;;10435008;28;20439;-65
2022/10/20 20:54:48;;;;;;;11.85;6.32;;;13.50;99.90;;;;;;10435662;28;20025;-66
2022/10/20 20:59:49;;;;;;;11.45;6.10;;;13.50;99.90;;;;;;10436822;28;20040;-65
2022/10/20 21:04:50;;;;;;;9.02;6.10;;;13.50;99.90;;;;;;10435742;28;20031;-65
2022/10/20 21:09:51;;;;;;;11.25;6.15;;;13.50;99.90;;;;;;10436672;28;20249;-65
2022/10/20 21:14:51;;;;;;;9.55;5.65;;;13.50;99.90;;;;;;10434881;28;20116;-66
2022/10/20 21:19:52;;;;;;;10.18;5.65;;;13.50;99.90;;;;;;10433824;28;20485;-66
2022/10/20 21:24:53;;;;;;;9.07;6.13;;;13.50;99.90;;;;;;10435391;28;20920;-66
2022/10/20 21:29:53;;;;;;;11.32;6.10;;;13.50;99.90;;;;;;10436266;28;20082;-66
2022/10/20 21:34:54;;;;;;;10.85;5.93;;;13.50;99.90;;;;;;10432116;28;20025;-66
2022/10/20 21:39:55;;;;;;;8.27;5.75;;;13.50;99.90;;;;;;10431645;28;20162;-65
2022/10/20 21:44:55;;;;;;;11.63;6.30;;;13.50;99.90;;;;;;10429533;28;20041;-65
2022/10/20 21:49:56;;;;;;;9.77;5.60;;;13.50;99.90;;;;;;10433683;28;20108;-66
2022/10/20 21:54:57;;;;;;;10.75;6.07;;;13.50;99.90;;;;;;10435380;28;20041;-65
2022/10/20 21:59:57;;;;;;;9.30;5.82;;;13.50;99.90;;;;;;10433922;28;20028;-66
2022/10/20 22:04:58;;;;;;;9.20;5.90;;;13.50;99.90;;;;;;10435864;28;20021;-67
2022/10/20 22:09:59;;;;;;;10.52;6.05;;;13.50;99.90;;;;;;10436180;28;20033;-65
2022/10/20 22:15:00;;;;;;;9.38;5.60;;;13.50;99.90;;;;;;10434469;28;21050;-65
2022/10/20 22:20:01;;;;;;;9.25;5.75;;;13.50;99.90;;;;;;10432857;28;20052;-65
2022/10/20 22:25:01;;;;;;;11.88;6.32;;;13.40;99.90;;;;;;10530208;22;20411;-65
2022/10/20 22:30:03;;;;;;;11.27;6.43;;;13.50;99.90;;;;;;10521802;28;20385;-66
2022/10/20 22:35:04;;;;;;;9.90;5.75;;;13.50;99.90;;;;;;10520025;28;20055;-65
2022/10/20 22:40:05;;;;;;;8.85;6.03;;;13.50;99.90;;;;;;10516124;28;20177;-66
2022/10/20 22:45:06;;;;;;;9.13;5.15;;;13.50;99.90;;;;;;10516743;28;20483;-66
2022/10/20 22:50:07;;;;;;;10.80;6.45;;;13.40;99.90;;;;;;10523816;28;20024;-65
2022/10/20 22:55:08;;;;;;;8.48;5.30;;;13.50;99.90;;;;;;10517695;28;20032;-65
2022/10/20 23:00:10;;;;;;;9.07;5.18;;;13.50;99.90;;;;;;10520750;28;20089;-66
2022/10/20 23:05:11;;;;;;;9.73;5.85;;;13.50;99.90;;;;;;10502160;28;20081;-65
2022/10/20 23:10:12;;;;;;;8.93;5.88;;;13.40;99.90;;;;;;10518241;28;20074;-66
2022/10/20 23:15:12;;;;;;;8.18;5.22;;;13.40;99.90;;;;;;10520318;28;20028;-66
2022/10/20 23:20:13;;;;;;;8.80;5.40;;;13.50;99.90;;;;;;10511482;28;20060;-66
2022/10/20 23:25:14;;;;;;;11.77;5.70;;;13.40;99.90;;;;;;10517002;28;20036;-66
2022/10/20 23:30:14;;;;;;;9.85;5.18;;;13.70;99.90;;;;;;10515212;28;20039;-66
2022/10/20 23:35:15;;;;;;;8.85;5.45;;;13.40;99.90;;;;;;10512089;28;20067;-66
2022/10/20 23:40:16;;;;;;;8.80;5.72;;;13.40;99.90;;;;;;10511681;28;20028;-65
2022/10/20 23:45:17;;;;;;;8.48;5.35;;;13.40;99.90;;;;;;10518572;28;20036;-66
2022/10/20 23:50:20;;;;;;;10.63;5.88;;;13.40;99.90;;;;;;10519118;28;20151;-66
2022/10/20 23:55:20;;;;;;;10.70;6.15;;;13.40;99.90;;;;;;10519230;28;20032;-66
